Time;durP1;ratioP1;P1;durP2;ratioP2;P2;SDS_P1;SDS_P2;PMS_P1;PMS_P2;Temp;Humidity;BMP_temperature;BMP_pressure;BME280_temperature;BME280_humidity;BME280_pressure;Samples;Min_cycle;Max_cycle;Signal;HPM_P1;HPM_P2
2021/09/04 00:02:22;;;;;;;9.18;4.17;;;;;;;10.93;78.77;101463.12;1898944;75;21042;-63
2021/09/04 00:04:51;;;;;;;9.58;3.02;;;;;;;10.99;78.63;101471.72;1899102;75;21495;-61
2021/09/04 00:07:20;;;;;;;5.97;2.70;;;;;;;11.02;78.69;101468.13;1898995;75;21530;-61
2021/09/04 00:09:51;;;;;;;8.53;3.08;;;;;;;11.08;78.58;101467.93;1899422;75;21174;-62
2021/09/04 00:12:20;;;;;;;13.40;3.10;;;;;;;11.13;78.54;101466.03;1898942;75;21133;-62
2021/09/04 00:14:50;;;;;;;6.83;2.30;;;;;;;11.17;78.38;101462.38;1899034;75;21105;-62
2021/09/04 00:17:20;;;;;;;5.95;2.42;;;;;;;11.22;78.23;101456.14;1898985;75;21135;-62
2021/09/04 00:19:48;;;;;;;6.55;2.47;;;;;;;11.26;78.11;101463.03;1898869;75;21109;-62
2021/09/04 00:22:17;;;;;;;11.53;2.80;;;;;;;11.30;78.09;101455.44;1898975;75;21065;-61
2021/09/04 00:24:46;;;;;;;8.08;2.55;;;;;;;11.31;78.29;101461.13;1898890;75;21037;-61
2021/09/04 00:27:15;;;;;;;4.97;2.10;;;;;;;11.32;78.29;101457.56;1899004;75;21437;-62
2021/09/04 00:29:44;;;;;;;4.85;1.87;;;;;;;11.35;78.31;101457.48;1898833;75;21213;-61
2021/09/04 00:32:12;;;;;;;5.70;2.10;;;;;;;11.37;78.26;101458.30;1898869;75;21043;-61
2021/09/04 00:34:41;;;;;;;6.25;2.05;;;;;;;11.39;78.16;101459.11;1898881;75;21121;-61
2021/09/04 00:37:10;;;;;;;5.17;1.98;;;;;;;11.44;77.97;101458.98;1895012;75;21159;-61
2021/09/04 00:39:38;;;;;;;4.90;1.85;;;;;;;11.47;77.88;101453.16;1933146;74;21602;-61
2021/09/04 00:42:07;;;;;;;5.33;1.85;;;;;;;11.49;77.77;101452.65;1933062;74;21122;-61
2021/09/04 00:44:36;;;;;;;5.70;1.75;;;;;;;11.52;77.69;101453.84;1932920;74;21475;-61
2021/09/04 00:47:06;;;;;;;2.83;1.85;;;;;;;11.55;77.69;101455.08;1932893;74;21138;-61
2021/09/04 00:49:36;;;;;;;5.72;1.80;;;;;;;11.58;77.75;101456.31;1932952;74;21009;-61
2021/09/04 00:52:07;;;;;;;5.37;1.60;;;;;;;11.62;77.69;101457.52;1933030;74;21517;-62
2021/09/04 00:54:37;;;;;;;4.67;1.90;;;;;;;11.63;77.64;101452.66;1932864;74;21033;-61
2021/09/04 00:57:06;;;;;;;6.78;2.30;;;;;;;11.63;77.77;101451.34;1933098;74;20997;-61
2021/09/04 00:59:35;;;;;;;6.65;1.90;;;;;;;11.61;77.86;101454.48;1933076;74;21083;-61
2021/09/04 01:02:05;;;;;;;3.55;1.75;;;;;;;11.59;77.97;101447.47;1933060;74;21021;-61
2021/09/04 01:04:35;;;;;;;3.62;1.52;;;;;;;11.62;78.08;101451.80;1933022;73;21049;-61
2021/09/04 01:07:05;;;;;;;4.85;1.92;;;;;;;11.63;78.13;101446.91;1932634;73;21540;-61
2021/09/04 01:09:34;;;;;;;6.75;1.70;;;;;;;11.67;78.19;101448.53;1932968;73;21475;-61
2021/09/04 01:12:04;;;;;;;4.78;1.50;;;;;;;11.68;78.37;101441.51;1933006;74;21420;-61
2021/09/04 01:14:33;;;;;;;7.28;1.98;;;;;;;11.69;78.27;101445.86;1932887;74;21119;-62
2021/09/04 01:17:02;;;;;;;3.45;1.40;;;;;;;11.69;78.19;101437.94;1932933;74;21107;-61
2021/09/04 01:19:31;;;;;;;6.42;1.55;;;;;;;11.71;78.00;101434.80;1932863;74;21122;-62
2021/09/04 01:21:59;;;;;;;5.35;1.65;;;;;;;11.75;77.73;101437.76;1932883;74;21119;-61
2021/09/04 01:24:28;;;;;;;4.97;1.65;;;;;;;11.81;77.52;101432.73;1933008;73;21041;-61
2021/09/04 01:26:57;;;;;;;4.97;1.90;;;;;;;11.85;77.66;101427.29;1932948;74;21424;-61
2021/09/04 01:29:26;;;;;;;3.98;2.10;;;;;;;11.89;77.80;101430.23;1932858;74;21029;-61
2021/09/04 01:31:55;;;;;;;4.35;2.08;;;;;;;11.89;77.98;101426.73;1932837;74;21127;-64
2021/09/04 01:34:23;;;;;;;3.85;1.70;;;;;;;11.89;78.22;101420.98;1932918;74;21173;-62
2021/09/04 01:36:52;;;;;;;5.87;1.77;;;;;;;11.87;78.30;101421.50;1932760;73;21084;-62
2021/09/04 01:42:10;;;;;;;7.40;1.90;;;;;;;11.91;78.43;101422.30;1869972;77;21093;-62
2021/09/04 01:44:39;;;;;;;2.40;1.57;;;;;;;11.93;78.45;101421.34;1869993;77;21511;-61
2021/09/04 01:47:08;;;;;;;6.62;2.27;;;;;;;11.94;78.47;101419.56;1870009;77;21057;-62
2021/09/04 01:49:37;;;;;;;7.72;2.42;;;;;;;11.97;78.43;101417.69;1870046;77;21017;-61
2021/09/04 01:52:06;;;;;;;5.30;1.85;;;;;;;12.00;78.35;101419.81;1870134;77;21126;-62
2021/09/04 01:54:35;;;;;;;5.47;1.70;;;;;;;12.03;78.27;101421.03;1870005;77;21049;-61
2021/09/04 01:57:04;;;;;;;2.75;1.70;;;;;;;12.04;78.20;101420.95;1869885;75;21092;-62
2021/09/04 01:59:35;;;;;;;5.67;1.70;;;;;;;12.06;78.14;101421.80;1869998;76;21437;-62
2021/09/04 02:02:04;;;;;;;5.12;1.70;;;;;;;12.09;78.11;101419.03;1869939;77;21072;-62
2021/09/04 02:04:33;;;;;;;4.85;1.60;;;;;;;12.14;78.08;101416.24;1870059;77;21076;-61
2021/09/04 02:07:05;;;;;;;4.45;1.37;;;;;;;12.19;77.98;101414.75;1870039;77;21479;-61
2021/09/04 02:09:34;;;;;;;6.30;1.70;;;;;;;12.23;77.87;101415.92;1869879;77;21105;-62
2021/09/04 02:12:04;;;;;;;2.90;1.60;;;;;;;12.28;77.71;101410.03;1870132;77;21479;-61
2021/09/04 02:14:33;;;;;;;21.10;1.92;;;;;;;12.33;77.66;101414.66;1870127;76;21029;-61
2021/09/04 02:17:02;;;;;;;2.77;1.40;;;;;;;12.35;77.59;101416.79;1870260;77;21005;-61
2021/09/04 02:19:32;;;;;;;5.50;1.47;;;;;;;12.37;77.56;101408.81;1870050;75;21156;-61
2021/09/04 02:22:03;;;;;;;8.65;1.77;;;;;;;12.39;77.59;101418.01;1869899;76;21049;-62
2021/09/04 02:24:33;;;;;;;9.30;1.80;;;;;;;12.42;77.65;101413.95;1869981;75;21150;-61
2021/09/04 02:27:02;;;;;;;8.63;2.35;;;;;;;12.48;77.68;101421.64;1870153;77;21155;-61
2021/09/04 02:29:32;;;;;;;5.58;1.92;;;;;;;12.52;77.70;101414.89;1870200;77;21159;-61
2021/09/04 02:32:03;;;;;;;6.67;3.10;;;;;;;12.58;77.74;101416.87;1869948;76;21154;-61
2021/09/04 02:34:32;;;;;;;4.12;2.05;;;;;;;12.60;77.67;101421.20;1870097;77;21033;-62
2021/09/04 02:37:01;;;;;;;2.33;1.37;;;;;;;12.62;77.61;101415.41;1869984;77;21130;-61
2021/09/04 02:39:30;;;;;;;1.75;1.47;;;;;;;12.63;77.54;101418.43;1870188;76;21507;-62
2021/09/04 02:41:59;;;;;;;10.03;2.80;;;;;;;12.64;77.61;101417.53;1867714;76;21085;-61
2021/09/04 02:44:28;;;;;;;5.75;1.92;;;;;;;12.64;77.68;101418.84;1866755;77;21146;-61
2021/09/04 02:46:57;;;;;;;7.50;1.75;;;;;;;12.65;77.75;101417.06;1866861;77;21534;-61
2021/09/04 02:49:27;;;;;;;3.90;1.37;;;;;;;12.64;77.92;101413.56;1866739;76;21151;-60
2021/09/04 02:51:55;;;;;;;1.95;1.30;;;;;;;12.65;77.99;101412.66;1866825;77;21068;-61
2021/09/04 02:54:24;;;;;;;6.30;1.42;;;;;;;12.65;78.23;101411.34;1866976;77;21515;-61
2021/09/04 02:56:53;;;;;;;4.85;1.60;;;;;;;12.67;78.37;101418.74;1866968;77;21159;-61
2021/09/04 02:59:23;;;;;;;3.52;1.27;;;;;;;12.68;78.25;101413.84;1866898;76;21537;-61
2021/09/04 03:01:51;;;;;;;6.12;1.47;;;;;;;12.70;78.26;101410.68;1866791;77;21452;-61
2021/09/04 03:04:21;;;;;;;3.52;1.40;;;;;;;12.72;78.25;101418.09;1866934;76;21045;-61
2021/09/04 03:06:50;;;;;;;5.20;1.37;;;;;;;12.73;78.11;101413.22;1866844;76;21084;-61
2021/09/04 03:09:30;;;;;;;;;;;;;;;;;;;;;
2021/09/04 03:12:10;;;;;;;5.78;1.70;;;;;;;12.77;78.05;101409.16;1812536;79;21153;-68
2021/09/04 03:14:39;;;;;;;5.28;1.65;;;;;;;12.79;77.98;101417.88;1812553;79;21092;-67
2021/09/04 03:17:07;;;;;;;3.65;2.02;;;;;;;12.81;78.02;101421.33;1812923;79;21068;-69
2021/09/04 03:19:36;;;;;;;7.33;2.55;;;;;;;12.84;77.99;101413.30;1812883;79;21100;-68
2021/09/04 03:22:05;;;;;;;8.08;2.50;;;;;;;12.85;78.09;101413.67;1831187;78;21143;-69
2021/09/04 03:24:35;;;;;;;6.70;2.60;;;;;;;12.87;78.13;101425.05;1840977;78;21571;-72
2021/09/04 03:27:06;;;;;;;7.47;2.22;;;;;;;12.87;78.04;101420.64;1840982;78;21119;-71
2021/09/04 03:29:36;;;;;;;5.53;1.77;;;;;;;12.89;78.01;101421.88;1841122;78;21044;-72
2021/09/04 03:32:05;;;;;;;5.12;2.00;;;;;;;12.89;78.01;101423.20;1842318;78;21068;-62
2021/09/04 03:34:35;;;;;;;9.08;2.20;;;;;;;12.91;77.99;101425.33;1843240;78;21028;-68
2021/09/04 03:37:06;;;;;;;3.80;1.98;;;;;;;12.92;77.98;101424.42;1845017;78;21740;-72
2021/09/04 03:39:34;;;;;;;4.15;2.20;;;;;;;12.94;78.01;101421.25;1846675;78;21226;-59
2021/09/04 03:42:03;;;;;;;2.83;1.37;;;;;;;12.96;78.07;101429.98;1846769;78;21530;-60
2021/09/04 03:44:32;;;;;;;6.50;1.75;;;;;;;12.98;78.14;101432.11;1846764;78;21137;-59
2021/09/04 03:47:02;;;;;;;3.37;2.33;;;;;;;12.99;78.27;101432.52;1846714;78;21076;-59
2021/09/04 03:49:31;;;;;;;8.88;2.17;;;;;;;13.00;78.37;101430.27;1846691;78;21491;-61
2021/09/04 03:52:00;;;;;;;3.00;1.52;;;;;;;13.02;78.33;101429.77;1846746;78;21207;-59
2021/09/04 03:54:28;;;;;;;2.25;1.37;;;;;;;13.03;78.33;101431.48;1846653;78;21092;-59
2021/09/04 03:56:58;;;;;;;2.47;1.45;;;;;;;13.05;78.30;101433.59;1846617;78;21518;-59
2021/09/04 03:59:27;;;;;;;3.27;1.98;;;;;;;13.06;78.23;101427.41;1846599;78;21597;-60
2021/09/04 04:01:56;;;;;;;7.08;1.40;;;;;;;13.09;78.21;101430.37;1846473;78;21077;-68
2021/09/04 04:04:27;;;;;;;4.80;1.55;;;;;;;13.10;78.16;101427.68;1846653;78;21190;-60
2021/09/04 04:06:56;;;;;;;8.65;3.25;;;;;;;13.12;78.19;101431.13;1846709;78;21110;-61
2021/09/04 04:09:24;;;;;;;6.80;2.30;;;;;;;13.14;78.37;101433.72;1846600;78;21177;-61
2021/09/04 04:11:54;;;;;;;4.15;1.80;;;;;;;13.16;78.27;101430.55;1867474;76;21200;-61
2021/09/04 04:14:23;;;;;;;7.40;1.95;;;;;;;13.20;78.25;101426.00;1878304;76;21481;-62
2021/09/04 04:16:52;;;;;;;5.83;1.27;;;;;;;13.21;78.23;101426.42;1878164;76;21446;-61
2021/09/04 04:19:21;;;;;;;5.97;1.82;;;;;;;13.23;78.25;101428.53;1878289;76;21047;-61
2021/09/04 04:21:50;;;;;;;3.40;1.50;;;;;;;13.28;78.28;101434.52;1878236;76;21156;-61
2021/09/04 04:24:19;;;;;;;7.53;1.90;;;;;;;13.29;78.36;101424.32;1878089;76;21082;-60
2021/09/04 04:26:48;;;;;;;6.92;2.00;;;;;;;13.32;78.33;101428.20;1878181;76;21085;-60
2021/09/04 04:29:17;;;;;;;4.55;2.08;;;;;;;13.35;78.47;101429.86;1878072;76;21492;-61
2021/09/04 04:31:46;;;;;;;7.17;1.95;;;;;;;13.38;78.42;101425.31;1878129;76;21587;-60
2021/09/04 04:34:15;;;;;;;2.70;1.60;;;;;;;13.40;78.34;101426.11;1878148;76;21078;-61
2021/09/04 04:36:46;;;;;;;2.95;1.90;;;;;;;13.43;78.31;101429.96;1878272;76;21082;-61
2021/09/04 04:39:14;;;;;;;5.08;1.80;;;;;;;13.44;78.33;101436.95;1878144;76;21567;-61
2021/09/04 04:41:43;;;;;;;13.20;2.33;;;;;;;13.47;78.50;101439.48;1878192;76;21074;-62
2021/09/04 04:44:12;;;;;;;5.20;2.33;;;;;;;13.48;78.69;101434.61;1878368;76;21612;-61
2021/09/04 04:46:42;;;;;;;5.00;2.27;;;;;;;13.50;78.79;101439.38;1878141;76;21094;-60
2021/09/04 04:49:11;;;;;;;3.52;2.02;;;;;;;13.55;78.73;101438.33;1878359;76;21589;-60
2021/09/04 04:51:41;;;;;;;8.73;2.27;;;;;;;13.61;78.65;101443.36;1878152;76;21172;-61
2021/09/04 04:54:10;;;;;;;6.67;2.50;;;;;;;13.69;78.57;101441.28;1878247;76;21714;-62
2021/09/04 04:56:39;;;;;;;7.20;2.30;;;;;;;13.78;78.43;101440.05;1878146;76;21539;-60
2021/09/04 04:59:08;;;;;;;7.20;2.87;;;;;;;13.85;78.43;101437.52;1878239;76;21112;-60
2021/09/04 05:01:38;;;;;;;5.17;2.33;;;;;;;13.93;78.42;101434.58;1878135;76;21541;-60
2021/09/04 05:04:06;;;;;;;6.35;2.02;;;;;;;14.01;78.32;101429.80;1878227;76;21532;-60
2021/09/04 05:06:36;;;;;;;5.22;1.75;;;;;;;14.10;78.21;101432.06;1878103;76;21521;-60
2021/09/04 05:09:05;;;;;;;8.13;1.67;;;;;;;14.17;78.04;101430.88;1878022;76;21195;-60
2021/09/04 05:11:33;;;;;;;4.90;1.57;;;;;;;14.24;77.84;101427.51;1877544;76;21168;-60
2021/09/04 05:14:03;;;;;;;7.20;1.82;;;;;;;14.31;77.63;101433.38;1874746;76;21094;-60
2021/09/04 05:16:32;;;;;;;4.55;1.40;;;;;;;14.37;77.44;101430.48;1874825;76;21106;-60
2021/09/04 05:19:02;;;;;;;5.70;2.25;;;;;;;14.47;77.28;101424.69;1874804;76;21537;-60
2021/09/04 05:21:31;;;;;;;5.28;2.35;;;;;;;14.64;77.14;101433.70;1874601;76;21533;-60
2021/09/04 05:24:00;;;;;;;5.80;1.60;;;;;;;14.82;76.89;101425.39;1874801;76;21596;-61
2021/09/04 05:26:30;;;;;;;6.87;1.67;;;;;;;15.03;76.69;101427.06;1874868;76;21517;-60
2021/09/04 05:28:59;;;;;;;3.45;1.20;;;;;;;15.49;76.70;101421.80;1874711;76;21650;-60
2021/09/04 05:31:27;;;;;;;3.35;1.47;;;;;;;15.69;76.08;101424.33;1874877;76;21109;-60
2021/09/04 05:33:57;;;;;;;6.55;1.40;;;;;;;15.80;75.65;101428.66;1874635;76;21070;-60
2021/09/04 05:36:25;;;;;;;3.40;1.55;;;;;;;15.96;75.21;101426.59;1874724;76;21737;-60
2021/09/04 05:38:54;;;;;;;3.52;2.05;;;;;;;16.04;74.67;101423.06;1874841;76;21110;-60
2021/09/04 05:41:29;;;;;;;5.08;1.60;;;;;;;16.21;74.55;101424.39;1874855;76;21108;-60
2021/09/04 05:43:58;;;;;;;8.18;1.95;;;;;;;16.42;74.39;101422.03;1843397;78;21054;-59
2021/09/04 05:46:27;;;;;;;2.27;1.20;;;;;;;16.53;74.03;101421.84;1843161;78;21148;-60
2021/09/04 05:48:56;;;;;;;4.92;1.17;;;;;;;16.58;73.27;101420.25;1843406;78;21117;-59
2021/09/04 05:51:25;;;;;;;7.97;1.32;;;;;;;16.65;72.84;101422.12;1843290;78;21125;-59
2021/09/04 05:53:54;;;;;;;3.02;1.40;;;;;;;16.73;72.71;101427.90;1843383;78;21218;-59
2021/09/04 05:56:22;;;;;;;3.25;1.50;;;;;;;16.85;72.56;101429.05;1843355;78;21141;-60
2021/09/04 05:58:51;;;;;;;2.15;1.47;;;;;;;17.03;72.48;101426.72;1843200;78;21050;-60
2021/09/04 06:01:24;;;;;;;4.30;1.50;;;;;;;17.14;72.28;101422.13;1843270;78;21086;-59
2021/09/04 06:03:53;;;;;;;3.65;2.40;;;;;;;17.20;71.98;101429.77;1843481;78;21062;-60
2021/09/04 06:06:22;;;;;;;4.37;1.50;;;;;;;17.26;71.71;101423.23;1843292;78;21168;-60
2021/09/04 06:08:50;;;;;;;7.30;2.65;;;;;;;17.33;71.34;101426.79;1843339;78;21156;-60
2021/09/04 06:11:19;;;;;;;4.20;2.90;;;;;;;17.41;71.09;101424.17;1843290;78;21062;-61
2021/09/04 06:13:48;;;;;;;2.58;1.30;;;;;;;17.47;70.69;101423.36;1845947;78;21127;-60
2021/09/04 06:16:16;;;;;;;2.27;1.40;;;;;;;17.50;70.59;101427.64;1846582;78;21520;-60
2021/09/04 06:18:49;;;;;;;4.25;1.62;;;;;;;17.49;70.35;101423.28;1846548;78;21093;-59
2021/09/04 06:21:18;;;;;;;4.45;1.00;;;;;;;17.64;70.11;101424.20;1846563;78;21152;-59
2021/09/04 06:23:50;;;;;;;5.03;1.10;;;;;;;18.22;69.18;101419.91;1846724;78;21548;-60
2021/09/04 06:26:19;;;;;;;4.40;1.47;;;;;;;18.46;68.59;101415.77;1844864;78;21120;-59
2021/09/04 06:28:47;;;;;;;2.58;1.12;;;;;;;18.95;68.20;101419.87;1846601;78;21556;-60
2021/09/04 06:31:16;;;;;;;4.50;1.85;;;;;;;19.45;66.15;101417.06;1846753;78;21069;-59
2021/09/04 06:33:45;;;;;;;2.55;1.12;;;;;;;20.39;64.35;101421.45;1846620;78;21185;-59
2021/09/04 06:36:14;;;;;;;2.42;0.90;;;;;;;20.80;63.16;101419.07;1846622;78;21140;-59
2021/09/04 06:38:43;;;;;;;3.47;1.25;;;;;;;20.92;61.71;101421.83;1846610;78;21172;-59
2021/09/04 06:41:11;;;;;;;2.47;0.85;;;;;;;21.68;61.16;101423.87;1846674;78;21139;-59
2021/09/04 06:43:42;;;;;;;2.95;0.98;;;;;;;22.34;59.16;101419.70;1844763;78;21081;-60
2021/09/04 06:46:11;;;;;;;1.70;0.80;;;;;;;23.07;58.59;101420.69;1846736;78;21239;-59
2021/09/04 06:48:40;;;;;;;1.57;0.95;;;;;;;23.68;54.92;101422.83;1846561;78;21090;-61
2021/09/04 06:51:09;;;;;;;2.20;0.70;;;;;;;23.99;51.59;101417.59;1846607;78;21065;-60
2021/09/04 06:53:38;;;;;;;1.60;0.80;;;;;;;24.24;48.58;101423.08;1846677;78;21114;-60
2021/09/04 06:56:06;;;;;;;1.05;0.55;;;;;;;24.55;47.42;101421.29;1846598;78;21062;-60
2021/09/04 06:58:35;;;;;;;1.40;1.07;;;;;;;25.00;47.42;101420.88;1846722;78;21093;-59
2021/09/04 07:01:04;;;;;;;1.75;0.78;;;;;;;25.37;45.92;101416.73;1846623;78;21110;-59
2021/09/04 07:03:34;;;;;;;1.70;0.80;;;;;;;25.60;43.84;101417.30;1846546;78;21090;-60
2021/09/04 07:06:04;;;;;;;3.27;0.90;;;;;;;25.99;43.44;101414.13;1846653;78;21066;-60
2021/09/04 07:08:32;;;;;;;1.60;0.90;;;;;;;26.38;41.69;101411.84;1846560;78;21128;-60
2021/09/04 07:11:01;;;;;;;3.30;2.80;;;;;;;26.35;40.77;101409.42;1846733;78;21184;-59
2021/09/04 07:13:30;;;;;;;1.72;1.02;;;;;;;26.68;40.61;101411.27;1845373;78;21124;-59
2021/09/04 07:15:59;;;;;;;2.37;0.60;;;;;;;27.11;40.80;101405.68;1843341;78;21144;-59
2021/09/04 07:18:28;;;;;;;2.25;0.78;;;;;;;27.45;40.47;101405.91;1843372;78;21610;-60
2021/09/04 07:20:57;;;;;;;3.12;0.70;;;;;;;27.16;38.86;101411.49;1843369;78;21098;-61
2021/09/04 07:23:26;;;;;;;3.35;1.20;;;;;;;26.65;40.05;101404.80;1843375;78;21094;-58
2021/09/04 07:25:55;;;;;;;1.82;0.80;;;;;;;26.02;41.24;101406.73;1843586;78;21042;-58
2021/09/04 07:28:23;;;;;;;3.27;0.65;;;;;;;25.36;42.26;101403.77;1843472;78;21078;-58
2021/09/04 07:30:53;;;;;;;3.33;0.50;;;;;;;25.95;42.03;101404.62;1843310;78;21152;-59
2021/09/04 07:33:22;;;;;;;2.12;1.00;;;;;;;25.42;42.20;101408.58;1843374;78;21176;-60
2021/09/04 07:35:50;;;;;;;1.15;0.60;;;;;;;24.59;43.51;101400.34;1843348;78;21160;-60
2021/09/04 07:38:19;;;;;;;1.75;0.80;;;;;;;24.14;44.52;101398.77;1843426;78;21078;-60
2021/09/04 07:40:49;;;;;;;3.47;1.07;;;;;;;23.93;44.94;101393.42;1843477;78;21066;-59
2021/09/04 07:43:19;;;;;;;1.10;0.80;;;;;;;23.97;44.93;101391.32;1843049;78;21128;-60
2021/09/04 07:45:47;;;;;;;2.40;0.88;;;;;;;23.99;44.98;101388.00;1843455;78;21543;-60
2021/09/04 07:48:19;;;;;;;1.95;1.10;;;;;;;24.07;45.40;101374.77;1843523;78;21164;-60
2021/09/04 07:50:48;;;;;;;1.07;0.62;;;;;;;24.43;45.18;101388.67;1843347;78;21031;-60
2021/09/04 07:53:17;;;;;;;2.80;0.70;;;;;;;24.44;45.31;101387.70;1843325;78;21097;-60
2021/09/04 07:55:46;;;;;;;2.22;0.70;;;;;;;23.99;45.46;101393.37;1843322;78;21630;-60
2021/09/04 07:58:15;;;;;;;3.08;0.70;;;;;;;23.28;45.88;101388.05;1843326;78;21042;-60
2021/09/04 08:00:43;;;;;;;3.20;1.37;;;;;;;22.61;47.01;101384.97;1843496;78;21058;-60
2021/09/04 08:03:12;;;;;;;3.02;1.42;;;;;;;22.08;48.60;101385.99;1843373;78;21148;-60
2021/09/04 08:05:41;;;;;;;2.37;0.72;;;;;;;21.79;49.59;101383.22;1843332;78;21110;-60
2021/09/04 08:08:11;;;;;;;1.10;0.70;;;;;;;21.54;50.26;101378.88;1843416;78;21066;-61
2021/09/04 08:10:43;;;;;;;3.30;0.90;;;;;;;21.30;50.08;101379.33;1843341;78;21074;-60
2021/09/04 08:13:10;;;;;;;2.65;0.80;;;;;;;21.14;50.38;101378.28;1843105;78;21038;-60
2021/09/04 08:15:40;;;;;;;2.10;0.82;;;;;;;21.07;50.99;101378.36;1843404;76;21516;-59
2021/09/04 08:18:09;;;;;;;3.17;1.10;;;;;;;21.08;51.24;101374.70;1843431;78;21501;-60
2021/09/04 08:20:37;;;;;;;3.30;0.60;;;;;;;21.38;51.00;101379.63;1843246;78;21144;-61
2021/09/04 08:23:07;;;;;;;2.65;0.70;;;;;;;22.00;49.55;101367.79;1843457;78;21148;-60
2021/09/04 08:25:37;;;;;;;2.52;0.72;;;;;;;21.87;49.64;101362.52;1843441;78;21090;-60
2021/09/04 08:28:09;;;;;;;1.92;0.70;;;;;;;21.70;49.79;101366.99;1843427;78;21101;-60
2021/09/04 08:30:39;;;;;;;2.87;0.85;;;;;;;21.55;50.03;101364.50;1843579;78;21555;-60
2021/09/04 08:33:08;;;;;;;1.32;0.80;;;;;;;21.36;50.35;101363.66;1843383;78;21125;-60
2021/09/04 08:35:36;;;;;;;2.58;0.70;;;;;;;21.19;50.54;101364.92;1843366;78;21062;-60
2021/09/04 08:38:10;;;;;;;3.25;1.25;;;;;;;21.00;50.95;101366.74;1843446;78;21509;-60
2021/09/04 08:40:41;;;;;;;2.45;1.30;;;;;;;20.91;51.62;101365.23;1842064;78;21183;-60
2021/09/04 08:43:10;;;;;;;1.85;0.90;;;;;;;20.82;52.25;101364.95;1843560;78;21411;-60
2021/09/04 08:45:39;;;;;;;2.00;0.90;;;;;;;20.79;52.81;101362.97;1843352;78;21058;-60
2021/09/04 08:48:09;;;;;;;3.10;0.95;;;;;;;20.74;53.40;101356.59;1843351;78;21062;-60
2021/09/04 08:50:38;;;;;;;2.02;0.80;;;;;;;20.74;53.53;101356.59;1843528;78;21042;-59
2021/09/04 08:53:07;;;;;;;3.40;0.95;;;;;;;20.85;53.37;101349.63;1843409;78;21454;-59
2021/09/04 08:55:36;;;;;;;1.80;0.70;;;;;;;20.94;53.23;101352.97;1843366;78;21523;-59
2021/09/04 08:58:05;;;;;;;3.98;0.95;;;;;;;20.98;53.21;101352.62;1843277;78;21157;-62
2021/09/04 09:00:36;;;;;;;2.33;0.98;;;;;;;20.99;53.45;101355.68;1843297;78;21493;-59
2021/09/04 09:03:05;;;;;;;2.67;0.78;;;;;;;20.90;53.33;101352.83;1843431;78;21062;-59
2021/09/04 09:05:43;;;;;;;4.12;1.02;;;;;;;20.70;53.55;101352.44;1843300;78;21027;-59
2021/09/04 09:08:26;;;;;;;3.75;1.00;;;;;;;20.55;54.37;101360.21;1843441;78;21059;-59
2021/09/04 09:11:02;;;;;;;2.92;1.00;;;;;;;20.46;54.34;101352.84;1843294;78;21235;-60
2021/09/04 09:13:29;;;;;;;3.00;1.20;;;;;;;20.45;54.29;101353.30;1841910;77;21072;-59
2021/09/04 09:15:58;;;;;;;5.33;1.25;;;;;;;20.60;54.33;101350.01;1845794;78;21479;-59
2021/09/04 09:18:28;;;;;;;3.22;1.02;;;;;;;20.85;54.17;101347.80;1846716;78;21085;-59
2021/09/04 09:21:00;;;;;;;5.30;1.57;;;;;;;21.06;53.53;101345.35;1846570;78;21082;-60
2021/09/04 09:23:31;;;;;;;1.98;0.90;;;;;;;21.44;52.98;101341.66;1846519;78;21129;-60
2021/09/04 09:26:11;;;;;;;1.77;0.80;;;;;;;22.01;52.85;101335.99;1846567;78;21500;-60
2021/09/04 09:28:39;;;;;;;5.28;1.00;;;;;;;22.08;51.76;101331.02;1846540;78;21038;-59
2021/09/04 09:31:08;;;;;;;2.30;1.05;;;;;;;22.27;51.70;101324.58;1846738;78;21489;-60
2021/09/04 09:33:37;;;;;;;2.27;0.90;;;;;;;23.59;49.96;101326.36;1846574;78;21187;-61
2021/09/04 09:36:05;;;;;;;1.20;0.70;;;;;;;24.72;47.83;101313.94;1846519;78;21054;-60
2021/09/04 09:38:35;;;;;;;2.17;0.80;;;;;;;25.77;46.72;101310.06;1846554;78;21197;-60
2021/09/04 09:41:06;;;;;;;3.95;0.78;;;;;;;26.65;43.17;101302.16;1846648;78;21059;-60
2021/09/04 09:43:38;;;;;;;2.30;0.62;;;;;;;26.50;39.84;101315.29;1846578;78;21090;-60
2021/09/04 09:46:08;;;;;;;2.25;0.90;;;;;;;25.35;40.12;101312.25;1846520;78;21524;-60
2021/09/04 09:48:40;;;;;;;1.27;0.70;;;;;;;24.46;41.79;101314.39;1846609;78;21152;-60
2021/09/04 09:51:10;;;;;;;3.02;1.00;;;;;;;23.86;42.72;101315.09;1846525;78;21038;-59
2021/09/04 09:53:39;;;;;;;3.22;0.90;;;;;;;23.45;43.92;101320.80;1846567;78;21062;-59
2021/09/04 09:56:08;;;;;;;2.02;1.00;;;;;;;23.37;45.03;101321.95;1846511;78;21058;-59
2021/09/04 09:58:39;;;;;;;1.98;0.80;;;;;;;23.28;45.53;101320.03;1846559;78;21097;-59
2021/09/04 10:01:08;;;;;;;2.00;0.75;;;;;;;23.06;46.33;101317.78;1846525;78;21202;-59
2021/09/04 10:03:38;;;;;;;1.65;1.00;;;;;;;22.86;46.27;101317.20;1846635;78;21605;-59
2021/09/04 10:06:07;;;;;;;3.25;0.82;;;;;;;22.56;46.66;101312.02;1846649;78;21504;-59
2021/09/04 10:08:36;;;;;;;3.70;0.98;;;;;;;22.26;46.62;101316.19;1846451;78;21558;-60
2021/09/04 10:11:06;;;;;;;2.45;0.75;;;;;;;22.00;46.92;101310.63;1846542;78;21516;-60
2021/09/04 10:13:35;;;;;;;3.27;0.85;;;;;;;21.70;47.20;101318.75;1846638;78;21054;-61
2021/09/04 10:16:06;;;;;;;3.98;0.75;;;;;;;21.40;47.71;101319.59;1844693;78;21195;-61
2021/09/04 10:18:35;;;;;;;3.85;0.90;;;;;;;21.25;48.10;101326.12;1843285;78;21140;-60
2021/09/04 10:21:13;;;;;;;1.55;0.40;;;;;;;21.24;48.19;101326.23;1842977;78;21628;-61
2021/09/04 10:23:50;;;;;;;1.87;0.70;;;;;;;21.26;47.61;101316.25;1842616;78;21062;-60
2021/09/04 10:26:39;;;;;;;3.08;2.37;;;;;;;21.49;47.25;101311.88;1843077;78;21090;-65
2021/09/04 10:29:10;;;;;;;2.70;1.22;;;;;;;22.04;46.52;101315.66;1842980;78;21035;-65
2021/09/04 10:31:57;;;;;;;2.65;0.70;;;;;;;22.66;44.97;101316.98;1842012;77;21038;-65
2021/09/04 10:34:29;;;;;;;3.05;0.50;;;;;;;23.08;44.67;101320.35;1846195;78;21038;-62
2021/09/04 10:37:09;;;;;;;0.95;0.40;;;;;;;23.39;43.70;101327.20;1844494;78;21208;-67
2021/09/04 10:39:59;;;;;;;4.55;0.90;;;;;;;23.15;42.81;101317.98;1841685;78;21034;-67
2021/09/04 10:42:36;;;;;;;1.87;0.70;;;;;;;22.67;42.84;101307.13;1841093;78;21132;-66
2021/09/04 10:45:08;;;;;;;1.75;0.88;;;;;;;22.25;43.66;101321.14;1840782;78;21536;-60
2021/09/04 10:47:52;;;;;;;3.12;1.02;;;;;;;21.98;44.62;101317.45;1845533;78;21113;-66
2021/09/04 10:50:26;;;;;;;2.12;0.80;;;;;;;21.74;45.20;101325.58;1846870;78;21074;-60
2021/09/04 10:53:00;;;;;;;3.55;0.90;;;;;;;21.67;45.91;101323.00;1846815;76;21520;-62
2021/09/04 10:55:34;;;;;;;2.80;0.90;;;;;;;21.68;45.34;101309.98;1847003;78;21211;-61
2021/09/04 10:58:11;;;;;;;6.78;0.75;;;;;;;21.64;45.93;101315.22;1846825;78;21098;-61
2021/09/04 11:00:50;;;;;;;2.15;0.68;;;;;;;21.76;46.46;101312.44;1846775;78;21065;-61
2021/09/04 11:03:21;;;;;;;1.90;0.80;;;;;;;22.25;45.67;101298.34;1846762;78;21128;-62
2021/09/04 11:06:05;;;;;;;1.62;0.70;;;;;;;22.79;43.97;101306.60;1846922;78;21050;-61
2021/09/04 11:08:32;;;;;;;1.00;0.55;;;;;;;23.05;43.09;101305.83;1846336;78;21058;-62
2021/09/04 11:11:21;;;;;;;1.65;0.60;;;;;;;23.21;42.05;101312.13;1846891;78;21120;-62
2021/09/04 11:13:51;;;;;;;2.05;0.60;;;;;;;23.12;42.85;101305.18;1846799;78;21121;-61
2021/09/04 11:16:41;;;;;;;2.65;0.65;;;;;;;23.27;43.95;101297.67;1846781;77;21156;-62
2021/09/04 11:19:16;;;;;;;1.90;0.60;;;;;;;23.45;43.78;101296.61;1846731;78;21130;-62
2021/09/04 11:21:48;;;;;;;2.90;0.70;;;;;;;23.27;43.97;101291.45;1846704;78;21058;-62
2021/09/04 11:24:22;;;;;;;3.83;0.72;;;;;;;23.06;43.34;101291.43;1838228;76;21328;-62
2021/09/04 11:26:57;;;;;;;0.62;0.40;;;;;;;22.65;42.83;101299.19;1846594;78;21189;-61
2021/09/04 11:29:26;;;;;;;0.78;0.47;;;;;;;22.25;43.64;101292.13;1846609;78;21062;-61
2021/09/04 11:31:58;;;;;;;2.22;0.70;;;;;;;22.19;44.64;101292.13;1846603;78;21159;-62
2021/09/04 11:34:38;;;;;;;1.65;0.70;;;;;;;22.27;44.79;101295.08;1846117;76;21137;-63
2021/09/04 11:37:21;;;;;;;0.98;0.50;;;;;;;22.08;44.03;101293.47;1846571;78;21113;-61
2021/09/04 11:39:50;;;;;;;;;;;;;;;21.81;44.69;101288.44;1839778;77;21144;-61
2021/09/04 11:42:22;;;;;;;3.15;0.60;;;;;;;21.78;45.06;101276.11;1846654;78;20148;-62
2021/09/04 11:44:57;;;;;;;1.05;0.57;;;;;;;21.88;45.43;101281.14;1846358;76;21053;-62